To NAV CANADA Home Page Login to a new session Search on AWWS site Feedback and Comments Disclaimer Vers la page française équivalente Tips FAQ What's new on the site To the Forecasts and Observations / NOTAM section To "File a Flight Plan" website Publications and other links Update of the User's profile FIC Telephone Numbers My Weather Data Folder Route Weather Data Regional Weather Data Local Weather Data To the Forecasts and Observations / NOTAM section
Request Generated 04/28/2015 at 10:19:20 UTC . Weather information available at that time is displayed.

METAR/TAF

BRANDON/BRANDON MUNICIPALITY/MB    

METAR CYBR 281000Z 27002KT 15SM FEW240 M02/M04 A3026 RMK CI1 SLP266=
METAR CYBR 280900Z 24005KT 15SM FEW240 M02/M04 A3026 RMK CI1 SLP266=
METAR CYBR 280800Z 25003KT 15SM FEW240 M02/M04 A3026 RMK CI2 SLP267=

TAF CYBR 280542Z 2806/2818 VRB03KT P6SM FEW240 PROB30 2810/2815 3/4SM
BR
RMK NXT FCST BY 281200Z=
Your time UTC time
Weather data provided by Environment Canada and NAV CANADA